sensor_id;sensor_type;location;lat;lon;timestamp;noise_LAeq;noise_LA_min;noise_LA_max;noise_LA01;noise_LA95
73638;Laerm;53743;51.100;5.874;2022-07-23T00:00:20;51.98;29.68;66.85;;
73638;Laerm;53743;51.100;5.874;2022-07-23T00:01:22;57.37;28.91;72.69;;
73638;Laerm;53743;51.100;5.874;2022-07-23T00:02:24;41.98;28.78;58.10;;
73638;Laerm;53743;51.100;5.874;2022-07-23T00:03:24;30.20;28.65;35.34;;
73638;Laerm;53743;51.100;5.874;2022-07-23T00:04:25;50.72;29.08;67.12;;
73638;Laerm;53743;51.100;5.874;2022-07-23T00:05:26;37.25;29.04;45.01;;
73638;Laerm;53743;51.100;5.874;2022-07-23T00:06:26;38.96;29.33;56.40;;
73638;Laerm;53743;51.100;5.874;2022-07-23T00:07:27;54.14;28.74;68.78;;
73638;Laerm;53743;51.100;5.874;2022-07-23T00:08:28;30.43;28.87;34.08;;
73638;Laerm;53743;51.100;5.874;2022-07-23T00:09:28;30.79;28.79;34.29;;
73638;Laerm;53743;51.100;5.874;2022-07-23T00:10:32;57.15;29.27;74.69;;
73638;Laerm;53743;51.100;5.874;2022-07-23T00:11:33;58.00;29.34;73.36;;
73638;Laerm;53743;51.100;5.874;2022-07-23T00:12:34;59.81;31.59;71.91;;
73638;Laerm;53743;51.100;5.874;2022-07-23T00:13:34;57.05;29.99;71.79;;
73638;Laerm;53743;51.100;5.874;2022-07-23T00:14:35;51.83;29.30;65.71;;
73638;Laerm;53743;51.100;5.874;2022-07-23T00:15:36;31.18;29.05;37.21;;
73638;Laerm;53743;51.100;5.874;2022-07-23T00:16:37;31.56;29.29;36.25;;
73638;Laerm;53743;51.100;5.874;2022-07-23T00:17:37;52.77;29.34;70.29;;
73638;Laerm;53743;51.100;5.874;2022-07-23T00:18:38;59.07;30.46;72.09;;
73638;Laerm;53743;51.100;5.874;2022-07-23T00:19:39;59.53;32.71;73.57;;
73638;Laerm;53743;51.100;5.874;2022-07-23T00:20:39;60.14;31.63;73.74;;
73638;Laerm;53743;51.100;5.874;2022-07-23T00:21:40;54.62;31.66;68.89;;
73638;Laerm;53743;51.100;5.874;2022-07-23T00:22:48;31.90;28.77;38.05;;
73638;Laerm;53743;51.100;5.874;2022-07-23T00:23:49;34.45;29.44;51.90;;
73638;Laerm;53743;51.100;5.874;2022-07-23T00:24:50;30.83;28.91;36.40;;
73638;Laerm;53743;51.100;5.874;2022-07-23T00:25:52;58.10;28.92;73.77;;
73638;Laerm;53743;51.100;5.874;2022-07-23T00:26:52;33.48;28.97;47.73;;
73638;Laerm;53743;51.100;5.874;2022-07-23T00:27:53;34.08;28.65;46.12;;
73638;Laerm;53743;51.100;5.874;2022-07-23T00:28:53;56.34;30.60;78.06;;
73638;Laerm;53743;51.100;5.874;2022-07-23T00:29:54;57.86;34.05;70.82;;
73638;Laerm;53743;51.100;5.874;2022-07-23T00:30:55;67.27;29.77;84.48;;
73638;Laerm;53743;51.100;5.874;2022-07-23T00:31:55;53.06;29.47;71.20;;
73638;Laerm;53743;51.100;5.874;2022-07-23T00:33:01;30.46;28.67;34.12;;
73638;Laerm;53743;51.100;5.874;2022-07-23T00:34:03;32.97;29.13;46.72;;
73638;Laerm;53743;51.100;5.874;2022-07-23T00:35:04;53.96;29.94;67.11;;
73638;Laerm;53743;51.100;5.874;2022-07-23T00:36:05;30.48;28.57;32.63;;
73638;Laerm;53743;51.100;5.874;2022-07-23T00:37:06;31.04;28.75;35.05;;
73638;Laerm;53743;51.100;5.874;2022-07-23T00:38:11;55.92;29.46;71.21;;
73638;Laerm;53743;51.100;5.874;2022-07-23T00:39:11;44.10;29.64;64.76;;
73638;Laerm;53743;51.100;5.874;2022-07-23T00:40:13;53.04;28.48;68.16;;
73638;Laerm;53743;51.100;5.874;2022-07-23T00:41:14;30.27;28.18;41.71;;
73638;Laerm;53743;51.100;5.874;2022-07-23T00:42:15;53.23;28.20;67.94;;
73638;Laerm;53743;51.100;5.874;2022-07-23T00:43:15;55.80;29.89;70.22;;
73638;Laerm;53743;51.100;5.874;2022-07-23T00:44:22;57.38;28.81;73.27;;
73638;Laerm;53743;51.100;5.874;2022-07-23T00:45:23;57.78;28.53;78.75;;
73638;Laerm;53743;51.100;5.874;2022-07-23T00:46:24;59.63;30.34;72.84;;
73638;Laerm;53743;51.100;5.874;2022-07-23T00:47:25;30.03;28.24;36.83;;
73638;Laerm;53743;51.100;5.874;2022-07-23T00:48:26;29.76;28.19;37.11;;
73638;Laerm;53743;51.100;5.874;2022-07-23T00:49:29;30.12;28.28;32.48;;
73638;Laerm;53743;51.100;5.874;2022-07-23T00:50:30;29.95;28.46;31.95;;
73638;Laerm;53743;51.100;5.874;2022-07-23T00:51:32;29.86;28.34;32.12;;
73638;Laerm;53743;51.100;5.874;2022-07-23T00:52:35;30.18;28.52;37.96;;
73638;Laerm;53743;51.100;5.874;2022-07-23T00:53:36;29.94;27.98;32.14;;
73638;Laerm;53743;51.100;5.874;2022-07-23T00:54:36;52.45;29.23;66.32;;
73638;Laerm;53743;51.100;5.874;2022-07-23T00:55:38;30.43;28.48;35.60;;
73638;Laerm;53743;51.100;5.874;2022-07-23T00:56:43;29.92;28.22;34.54;;
73638;Laerm;53743;51.100;5.874;2022-07-23T00:57:44;51.35;28.64;65.30;;
73638;Laerm;53743;51.100;5.874;2022-07-23T00:58:45;29.77;28.16;37.68;;
73638;Laerm;53743;51.100;5.874;2022-07-23T00:59:46;29.83;28.02;34.20;;
73638;Laerm;53743;51.100;5.874;2022-07-23T01:00:47;30.10;28.12;40.40;;
73638;Laerm;53743;51.100;5.874;2022-07-23T01:01:48;30.16;28.14;32.58;;
73638;Laerm;53743;51.100;5.874;2022-07-23T01:02:50;30.31;28.64;32.08;;
73638;Laerm;53743;51.100;5.874;2022-07-23T01:03:50;53.63;28.29;69.04;;
73638;Laerm;53743;51.100;5.874;2022-07-23T01:04:52;59.62;33.25;73.07;;
73638;Laerm;53743;51.100;5.874;2022-07-23T01:05:53;55.92;29.88;67.99;;
73638;Laerm;53743;51.100;5.874;2022-07-23T01:06:54;29.96;28.42;39.55;;
73638;Laerm;53743;51.100;5.874;2022-07-23T01:08:57;58.40;28.59;76.73;;
73638;Laerm;53743;51.100;5.874;2022-07-23T01:09:59;56.22;28.58;76.39;;
73638;Laerm;53743;51.100;5.874;2022-07-23T01:11:00;57.43;28.80;73.61;;
73638;Laerm;53743;51.100;5.874;2022-07-23T01:12:01;29.78;28.09;32.21;;
73638;Laerm;53743;51.100;5.874;2022-07-23T01:13:08;30.04;28.20;35.97;;
73638;Laerm;53743;51.100;5.874;2022-07-23T01:14:18;30.85;28.45;34.43;;
73638;Laerm;53743;51.100;5.874;2022-07-23T01:15:19;54.73;28.62;72.03;;
73638;Laerm;53743;51.100;5.874;2022-07-23T01:16:20;37.37;28.46;50.47;;
73638;Laerm;53743;51.100;5.874;2022-07-23T01:17:21;29.69;27.63;45.70;;
73638;Laerm;53743;51.100;5.874;2022-07-23T01:18:22;61.72;28.36;77.78;;
73638;Laerm;53743;51.100;5.874;2022-07-23T01:19:22;30.15;28.24;33.89;;
73638;Laerm;53743;51.100;5.874;2022-07-23T01:20:23;30.48;28.52;34.02;;
73638;Laerm;53743;51.100;5.874;2022-07-23T01:21:25;29.80;28.06;31.95;;
73638;Laerm;53743;51.100;5.874;2022-07-23T01:22:29;29.64;28.23;33.94;;
73638;Laerm;53743;51.100;5.874;2022-07-23T01:23:30;29.62;27.90;33.33;;
73638;Laerm;53743;51.100;5.874;2022-07-23T01:24:33;30.63;28.09;36.56;;
73638;Laerm;53743;51.100;5.874;2022-07-23T01:25:48;30.83;28.22;38.65;;
73638;Laerm;53743;51.100;5.874;2022-07-23T01:26:50;30.00;28.43;35.34;;
73638;Laerm;53743;51.100;5.874;2022-07-23T01:27:53;35.03;28.25;47.19;;
73638;Laerm;53743;51.100;5.874;2022-07-23T01:28:53;59.63;28.87;75.06;;
73638;Laerm;53743;51.100;5.874;2022-07-23T01:29:56;30.33;28.50;35.02;;
73638;Laerm;53743;51.100;5.874;2022-07-23T01:30:57;30.14;28.10;34.66;;
73638;Laerm;53743;51.100;5.874;2022-07-23T01:31:58;29.92;27.99;31.73;;
73638;Laerm;53743;51.100;5.874;2022-07-23T01:32:59;29.99;28.45;33.52;;
73638;Laerm;53743;51.100;5.874;2022-07-23T01:34:01;29.81;27.99;31.45;;
73638;Laerm;53743;51.100;5.874;2022-07-23T01:35:02;29.55;27.90;35.57;;
73638;Laerm;53743;51.100;5.874;2022-07-23T01:36:03;29.58;27.82;31.36;;
73638;Laerm;53743;51.100;5.874;2022-07-23T01:37:04;29.65;27.89;32.43;;
73638;Laerm;53743;51.100;5.874;2022-07-23T01:38:05;30.18;27.97;36.27;;
73638;Laerm;53743;51.100;5.874;2022-07-23T01:39:07;30.28;28.52;40.83;;
73638;Laerm;53743;51.100;5.874;2022-07-23T01:40:08;30.41;28.68;34.55;;
73638;Laerm;53743;51.100;5.874;2022-07-23T01:41:09;30.19;28.17;33.61;;
73638;Laerm;53743;51.100;5.874;2022-07-23T01:42:09;30.38;28.60;36.09;;
73638;Laerm;53743;51.100;5.874;2022-07-23T01:43:11;49.55;28.73;68.11;;
73638;Laerm;53743;51.100;5.874;2022-07-23T01:44:12;53.54;28.77;73.54;;
73638;Laerm;53743;51.100;5.874;2022-07-23T01:45:14;58.63;28.70;73.15;;
73638;Laerm;53743;51.100;5.874;2022-07-23T01:46:19;32.68;28.51;41.43;;
73638;Laerm;53743;51.100;5.874;2022-07-23T01:47:23;56.53;29.35;72.89;;
73638;Laerm;53743;51.100;5.874;2022-07-23T01:48:26;59.68;33.16;72.62;;
73638;Laerm;53743;51.100;5.874;2022-07-23T01:49:56;32.82;27.99;44.69;;
73638;Laerm;53743;51.100;5.874;2022-07-23T01:51:14;30.10;28.43;32.25;;
73638;Laerm;53743;51.100;5.874;2022-07-23T01:52:17;29.96;27.85;32.18;;
73638;Laerm;53743;51.100;5.874;2022-07-23T01:53:22;29.70;28.14;31.70;;
73638;Laerm;53743;51.100;5.874;2022-07-23T01:54:23;53.31;28.24;68.28;;
73638;Laerm;53743;51.100;5.874;2022-07-23T01:55:24;30.74;28.25;37.12;;
73638;Laerm;53743;51.100;5.874;2022-07-23T01:56:25;29.96;28.34;32.21;;
73638;Laerm;53743;51.100;5.874;2022-07-23T01:57:26;57.59;28.67;72.73;;
73638;Laerm;53743;51.100;5.874;2022-07-23T01:58:27;30.12;28.53;41.70;;
73638;Laerm;53743;51.100;5.874;2022-07-23T01:59:29;30.11;28.29;32.07;;
73638;Laerm;53743;51.100;5.874;2022-07-23T02:00:29;30.51;28.31;35.92;;
73638;Laerm;53743;51.100;5.874;2022-07-23T02:01:30;30.14;28.35;35.71;;
73638;Laerm;53743;51.100;5.874;2022-07-23T02:02:31;30.07;28.38;33.12;;
73638;Laerm;53743;51.100;5.874;2022-07-23T02:03:32;29.73;27.95;31.93;;
73638;Laerm;53743;51.100;5.874;2022-07-23T02:04:33;29.84;27.78;32.90;;
73638;Laerm;53743;51.100;5.874;2022-07-23T02:05:36;61.14;28.88;77.85;;
73638;Laerm;53743;51.100;5.874;2022-07-23T02:06:38;30.00;28.31;32.45;;
73638;Laerm;53743;51.100;5.874;2022-07-23T02:07:38;30.12;28.09;32.84;;
73638;Laerm;53743;51.100;5.874;2022-07-23T02:08:39;29.97;28.33;32.55;;
73638;Laerm;53743;51.100;5.874;2022-07-23T02:09:40;31.15;28.63;38.54;;
73638;Laerm;53743;51.100;5.874;2022-07-23T02:10:41;42.35;30.03;49.29;;
73638;Laerm;53743;51.100;5.874;2022-07-23T02:11:41;30.43;28.21;42.65;;
73638;Laerm;53743;51.100;5.874;2022-07-23T02:12:42;29.98;28.44;36.91;;
73638;Laerm;53743;51.100;5.874;2022-07-23T02:13:44;30.01;28.47;32.01;;
73638;Laerm;53743;51.100;5.874;2022-07-23T02:14:44;30.05;28.40;34.93;;
73638;Laerm;53743;51.100;5.874;2022-07-23T02:15:47;29.97;28.28;35.13;;
73638;Laerm;53743;51.100;5.874;2022-07-23T02:16:48;29.68;27.93;36.14;;
73638;Laerm;53743;51.100;5.874;2022-07-23T02:17:49;29.56;27.92;33.43;;
73638;Laerm;53743;51.100;5.874;2022-07-23T02:18:50;29.81;28.25;33.79;;
73638;Laerm;53743;51.100;5.874;2022-07-23T02:19:50;56.11;28.51;72.38;;
73638;Laerm;53743;51.100;5.874;2022-07-23T02:20:51;30.88;28.17;41.95;;
73638;Laerm;53743;51.100;5.874;2022-07-23T02:21:52;29.55;28.01;33.52;;
73638;Laerm;53743;51.100;5.874;2022-07-23T02:22:53;29.67;28.13;33.24;;
73638;Laerm;53743;51.100;5.874;2022-07-23T02:23:54;29.92;28.39;34.92;;
73638;Laerm;53743;51.100;5.874;2022-07-23T02:24:55;29.95;28.39;35.50;;
73638;Laerm;53743;51.100;5.874;2022-07-23T02:25:56;30.98;28.71;36.28;;
73638;Laerm;53743;51.100;5.874;2022-07-23T02:26:56;31.09;28.76;36.34;;
73638;Laerm;53743;51.100;5.874;2022-07-23T02:27:57;30.22;28.28;32.73;;
73638;Laerm;53743;51.100;5.874;2022-07-23T02:28:58;30.12;28.21;34.24;;
73638;Laerm;53743;51.100;5.874;2022-07-23T02:29:59;29.92;28.27;35.66;;
73638;Laerm;53743;51.100;5.874;2022-07-23T02:31:00;29.75;27.76;33.77;;
73638;Laerm;53743;51.100;5.874;2022-07-23T02:32:00;29.56;27.92;31.20;;
73638;Laerm;53743;51.100;5.874;2022-07-23T02:33:01;29.66;27.98;32.53;;
73638;Laerm;53743;51.100;5.874;2022-07-23T02:34:02;30.05;28.37;32.79;;
73638;Laerm;53743;51.100;5.874;2022-07-23T02:35:04;30.15;28.67;35.95;;
73638;Laerm;53743;51.100;5.874;2022-07-23T02:36:06;60.03;29.24;75.91;;
73638;Laerm;53743;51.100;5.874;2022-07-23T02:37:07;49.00;28.89;64.49;;
73638;Laerm;53743;51.100;5.874;2022-07-23T02:38:09;30.34;28.38;43.90;;
73638;Laerm;53743;51.100;5.874;2022-07-23T02:39:11;30.28;28.26;38.25;;
73638;Laerm;53743;51.100;5.874;2022-07-23T02:40:12;29.97;28.17;32.16;;
73638;Laerm;53743;51.100;5.874;2022-07-23T02:41:14;39.81;28.58;55.88;;
73638;Laerm;53743;51.100;5.874;2022-07-23T02:42:16;58.04;30.26;72.65;;
73638;Laerm;53743;51.100;5.874;2022-07-23T02:43:18;36.99;29.09;49.80;;
73638;Laerm;53743;51.100;5.874;2022-07-23T02:44:19;57.36;30.45;71.08;;
73638;Laerm;53743;51.100;5.874;2022-07-23T02:45:24;59.56;28.93;79.78;;
73638;Laerm;53743;51.100;5.874;2022-07-23T02:46:26;30.47;28.53;36.70;;
73638;Laerm;53743;51.100;5.874;2022-07-23T02:47:27;30.66;28.68;33.36;;
73638;Laerm;53743;51.100;5.874;2022-07-23T02:48:29;30.66;28.27;33.29;;
73638;Laerm;53743;51.100;5.874;2022-07-23T02:49:30;30.54;28.53;36.26;;
73638;Laerm;53743;51.100;5.874;2022-07-23T02:50:31;30.99;28.98;35.50;;
73638;Laerm;53743;51.100;5.874;2022-07-23T02:51:33;30.17;28.32;32.43;;
73638;Laerm;53743;51.100;5.874;2022-07-23T02:52:38;30.08;28.18;32.55;;
73638;Laerm;53743;51.100;5.874;2022-07-23T02:53:38;32.32;28.99;36.54;;
73638;Laerm;53743;51.100;5.874;2022-07-23T02:54:39;31.47;29.03;34.54;;
73638;Laerm;53743;51.100;5.874;2022-07-23T02:55:40;59.27;28.94;74.18;;
73638;Laerm;53743;51.100;5.874;2022-07-23T02:56:41;32.90;29.22;42.46;;
73638;Laerm;53743;51.100;5.874;2022-07-23T02:57:42;32.48;29.12;40.32;;
73638;Laerm;53743;51.100;5.874;2022-07-23T02:58:42;30.40;28.69;31.97;;
73638;Laerm;53743;51.100;5.874;2022-07-23T02:59:43;30.38;28.53;31.93;;
73638;Laerm;53743;51.100;5.874;2022-07-23T03:00:44;30.93;28.90;34.54;;
73638;Laerm;53743;51.100;5.874;2022-07-23T03:01:45;33.79;28.81;56.12;;
73638;Laerm;53743;51.100;5.874;2022-07-23T03:02:46;30.61;28.01;37.22;;
73638;Laerm;53743;51.100;5.874;2022-07-23T03:03:46;57.30;29.35;72.80;;
73638;Laerm;53743;51.100;5.874;2022-07-23T03:04:47;34.55;28.72;48.06;;
73638;Laerm;53743;51.100;5.874;2022-07-23T03:05:48;30.37;28.84;32.38;;
73638;Laerm;53743;51.100;5.874;2022-07-23T03:06:49;54.24;29.07;71.59;;
73638;Laerm;53743;51.100;5.874;2022-07-23T03:07:49;31.13;28.93;38.62;;
73638;Laerm;53743;51.100;5.874;2022-07-23T03:08:50;30.73;28.47;35.16;;
73638;Laerm;53743;51.100;5.874;2022-07-23T03:09:50;30.78;28.81;36.11;;
73638;Laerm;53743;51.100;5.874;2022-07-23T03:10:51;30.67;28.84;35.06;;
73638;Laerm;53743;51.100;5.874;2022-07-23T03:11:52;30.89;28.79;47.69;;
73638;Laerm;53743;51.100;5.874;2022-07-23T03:12:54;60.38;28.63;78.13;;
73638;Laerm;53743;51.100;5.874;2022-07-23T03:13:54;58.40;31.09;78.22;;
73638;Laerm;53743;51.100;5.874;2022-07-23T03:14:55;32.20;28.54;41.84;;
73638;Laerm;53743;51.100;5.874;2022-07-23T03:15:56;30.31;28.55;36.11;;
73638;Laerm;53743;51.100;5.874;2022-07-23T03:16:57;60.60;28.96;76.55;;
73638;Laerm;53743;51.100;5.874;2022-07-23T03:18:00;30.71;28.98;35.08;;
73638;Laerm;53743;51.100;5.874;2022-07-23T03:19:00;55.83;29.24;74.20;;
73638;Laerm;53743;51.100;5.874;2022-07-23T03:20:01;32.52;29.47;44.31;;
73638;Laerm;53743;51.100;5.874;2022-07-23T03:21:02;60.21;30.00;81.09;;
73638;Laerm;53743;51.100;5.874;2022-07-23T03:22:03;54.66;28.95;72.49;;
73638;Laerm;53743;51.100;5.874;2022-07-23T03:23:04;57.93;29.17;72.21;;
73638;Laerm;53743;51.100;5.874;2022-07-23T03:24:08;36.05;28.87;45.95;;
73638;Laerm;53743;51.100;5.874;2022-07-23T03:25:10;62.29;29.00;79.15;;
73638;Laerm;53743;51.100;5.874;2022-07-23T03:26:10;30.85;28.88;32.63;;
73638;Laerm;53743;51.100;5.874;2022-07-23T03:27:11;31.39;29.08;33.84;;
73638;Laerm;53743;51.100;5.874;2022-07-23T03:28:12;31.57;29.30;41.10;;
73638;Laerm;53743;51.100;5.874;2022-07-23T03:29:13;39.83;31.10;57.27;;
73638;Laerm;53743;51.100;5.874;2022-07-23T03:30:13;32.70;30.00;38.21;;
73638;Laerm;53743;51.100;5.874;2022-07-23T03:31:14;31.64;29.72;40.46;;
73638;Laerm;53743;51.100;5.874;2022-07-23T03:32:15;38.40;29.56;57.00;;
73638;Laerm;53743;51.100;5.874;2022-07-23T03:33:18;57.21;29.98;69.75;;
73638;Laerm;53743;51.100;5.874;2022-07-23T03:34:19;52.06;29.33;70.00;;
73638;Laerm;53743;51.100;5.874;2022-07-23T03:35:20;50.97;29.32;69.12;;
73638;Laerm;53743;51.100;5.874;2022-07-23T03:36:35;56.78;29.68;72.50;;
73638;Laerm;53743;51.100;5.874;2022-07-23T03:37:36;59.07;29.99;76.16;;
73638;Laerm;53743;51.100;5.874;2022-07-23T03:38:36;58.64;36.11;75.73;;
73638;Laerm;53743;51.100;5.874;2022-07-23T03:39:39;41.42;29.83;56.77;;
73638;Laerm;53743;51.100;5.874;2022-07-23T03:40:40;32.92;29.08;41.30;;
73638;Laerm;53743;51.100;5.874;2022-07-23T03:41:41;54.31;29.71;75.05;;
73638;Laerm;53743;51.100;5.874;2022-07-23T03:42:42;33.54;29.77;43.24;;
73638;Laerm;53743;51.100;5.874;2022-07-23T03:43:43;37.92;29.88;49.45;;
73638;Laerm;53743;51.100;5.874;2022-07-23T03:44:45;32.34;29.30;42.28;;
73638;Laerm;53743;51.100;5.874;2022-07-23T03:45:46;40.35;29.50;54.88;;
73638;Laerm;53743;51.100;5.874;2022-07-23T03:46:47;56.27;29.54;70.91;;
73638;Laerm;53743;51.100;5.874;2022-07-23T03:47:48;40.95;29.71;54.49;;
73638;Laerm;53743;51.100;5.874;2022-07-23T03:48:49;38.75;29.29;55.83;;
73638;Laerm;53743;51.100;5.874;2022-07-23T03:49:49;55.51;30.31;67.61;;
73638;Laerm;53743;51.100;5.874;2022-07-23T03:50:50;32.93;30.12;39.59;;
73638;Laerm;53743;51.100;5.874;2022-07-23T03:51:51;33.08;30.11;43.39;;
73638;Laerm;53743;51.100;5.874;2022-07-23T03:52:52;32.59;29.78;41.66;;
73638;Laerm;53743;51.100;5.874;2022-07-23T03:53:53;31.96;29.53;37.49;;
73638;Laerm;53743;51.100;5.874;2022-07-23T03:54:55;32.59;29.62;42.43;;
73638;Laerm;53743;51.100;5.874;2022-07-23T03:55:57;31.86;29.12;39.88;;
73638;Laerm;53743;51.100;5.874;2022-07-23T03:56:58;58.92;29.24;75.17;;
73638;Laerm;53743;51.100;5.874;2022-07-23T03:57:59;49.92;29.95;69.25;;
73638;Laerm;53743;51.100;5.874;2022-07-23T03:59:00;57.09;30.82;72.57;;
73638;Laerm;53743;51.100;5.874;2022-07-23T04:00:02;47.47;30.45;63.92;;
73638;Laerm;53743;51.100;5.874;2022-07-23T04:01:03;61.51;33.33;75.91;;
73638;Laerm;53743;51.100;5.874;2022-07-23T04:02:04;36.46;29.96;48.58;;
73638;Laerm;53743;51.100;5.874;2022-07-23T04:03:05;35.12;29.52;48.87;;
73638;Laerm;53743;51.100;5.874;2022-07-23T04:04:07;32.36;29.14;40.82;;
73638;Laerm;53743;51.100;5.874;2022-07-23T04:05:09;34.42;29.69;44.05;;
73638;Laerm;53743;51.100;5.874;2022-07-23T04:06:11;57.87;30.67;72.56;;
73638;Laerm;53743;51.100;5.874;2022-07-23T04:07:13;58.27;31.05;73.59;;
73638;Laerm;53743;51.100;5.874;2022-07-23T04:08:13;34.48;30.55;40.51;;
73638;Laerm;53743;51.100;5.874;2022-07-23T04:09:17;54.45;30.45;72.14;;
73638;Laerm;53743;51.100;5.874;2022-07-23T04:10:20;58.66;31.31;72.48;;
73638;Laerm;53743;51.100;5.874;2022-07-23T04:11:21;58.20;30.78;72.83;;
73638;Laerm;53743;51.100;5.874;2022-07-23T04:12:23;39.94;30.27;55.99;;
73638;Laerm;53743;51.100;5.874;2022-07-23T04:13:24;36.15;30.50;51.09;;
73638;Laerm;53743;51.100;5.874;2022-07-23T04:14:25;33.65;30.43;45.26;;
73638;Laerm;53743;51.100;5.874;2022-07-23T04:15:26;35.64;31.33;46.31;;
73638;Laerm;53743;51.100;5.874;2022-07-23T04:16:26;35.69;30.75;48.38;;
73638;Laerm;53743;51.100;5.874;2022-07-23T04:17:28;54.96;30.85;71.03;;
73638;Laerm;53743;51.100;5.874;2022-07-23T04:18:30;56.34;33.27;70.87;;
73638;Laerm;53743;51.100;5.874;2022-07-23T04:19:41;58.03;30.53;71.39;;
73638;Laerm;53743;51.100;5.874;2022-07-23T04:20:45;41.04;30.35;53.86;;
73638;Laerm;53743;51.100;5.874;2022-07-23T04:21:45;54.72;31.31;68.59;;
73638;Laerm;53743;51.100;5.874;2022-07-23T04:22:46;35.96;30.45;50.13;;
73638;Laerm;53743;51.100;5.874;2022-07-23T04:23:47;39.35;32.56;50.78;;
73638;Laerm;53743;51.100;5.874;2022-07-23T04:24:48;58.44;33.28;75.94;;
73638;Laerm;53743;51.100;5.874;2022-07-23T04:25:49;62.13;34.64;76.50;;
73638;Laerm;53743;51.100;5.874;2022-07-23T04:26:50;58.72;33.42;75.41;;
73638;Laerm;53743;51.100;5.874;2022-07-23T04:27:51;58.27;30.10;73.51;;
73638;Laerm;53743;51.100;5.874;2022-07-23T04:28:52;61.29;35.15;82.76;;
73638;Laerm;53743;51.100;5.874;2022-07-23T04:29:52;53.56;33.65;68.65;;
73638;Laerm;53743;51.100;5.874;2022-07-23T04:30:56;57.46;31.89;73.89;;
73638;Laerm;53743;51.100;5.874;2022-07-23T04:31:57;39.00;30.55;57.39;;
73638;Laerm;53743;51.100;5.874;2022-07-23T04:32:58;52.93;30.81;70.18;;
73638;Laerm;53743;51.100;5.874;2022-07-23T04:34:02;56.33;34.02;73.19;;
73638;Laerm;53743;51.100;5.874;2022-07-23T04:35:03;55.29;33.62;69.79;;
73638;Laerm;53743;51.100;5.874;2022-07-23T04:36:04;38.03;30.81;56.56;;
73638;Laerm;53743;51.100;5.874;2022-07-23T04:37:04;37.87;31.24;55.95;;
73638;Laerm;53743;51.100;5.874;2022-07-23T04:38:06;39.11;30.16;51.60;;
73638;Laerm;53743;51.100;5.874;2022-07-23T04:39:07;60.75;34.39;78.97;;
73638;Laerm;53743;51.100;5.874;2022-07-23T04:40:09;53.58;32.25;68.25;;
73638;Laerm;53743;51.100;5.874;2022-07-23T04:41:10;55.63;32.03;70.66;;
73638;Laerm;53743;51.100;5.874;2022-07-23T04:42:12;51.18;30.92;66.16;;
73638;Laerm;53743;51.100;5.874;2022-07-23T04:43:13;54.37;31.20;68.59;;
73638;Laerm;53743;51.100;5.874;2022-07-23T04:44:22;63.15;31.38;75.53;;
73638;Laerm;53743;51.100;5.874;2022-07-23T04:45:23;64.26;33.79;77.65;;
73638;Laerm;53743;51.100;5.874;2022-07-23T04:46:25;56.49;32.23;72.10;;
73638;Laerm;53743;51.100;5.874;2022-07-23T04:47:26;59.56;34.23;73.14;;
73638;Laerm;53743;51.100;5.874;2022-07-23T04:48:27;59.47;31.17;71.98;;
73638;Laerm;53743;51.100;5.874;2022-07-23T04:49:34;51.72;31.05;67.45;;
73638;Laerm;53743;51.100;5.874;2022-07-23T04:50:35;61.13;30.57;82.25;;
73638;Laerm;53743;51.100;5.874;2022-07-23T04:51:35;33.81;30.10;46.18;;
73638;Laerm;53743;51.100;5.874;2022-07-23T04:52:36;60.69;32.51;79.35;;
73638;Laerm;53743;51.100;5.874;2022-07-23T04:53:37;58.24;30.61;76.12;;
73638;Laerm;53743;51.100;5.874;2022-07-23T04:54:39;60.31;33.41;76.80;;
73638;Laerm;53743;51.100;5.874;2022-07-23T04:55:40;57.86;30.98;70.89;;
73638;Laerm;53743;51.100;5.874;2022-07-23T04:56:41;39.10;31.71;52.91;;
73638;Laerm;53743;51.100;5.874;2022-07-23T04:57:42;55.48;32.31;70.44;;
73638;Laerm;53743;51.100;5.874;2022-07-23T04:58:42;44.16;30.76;60.48;;
73638;Laerm;53743;51.100;5.874;2022-07-23T04:59:44;62.79;32.85;76.66;;
73638;Laerm;53743;51.100;5.874;2022-07-23T05:00:46;36.95;30.59;54.34;;
73638;Laerm;53743;51.100;5.874;2022-07-23T05:01:47;60.17;31.78;73.26;;
73638;Laerm;53743;51.100;5.874;2022-07-23T05:02:47;62.40;33.20;76.76;;
73638;Laerm;53743;51.100;5.874;2022-07-23T05:03:48;59.20;35.44;78.48;;
73638;Laerm;53743;51.100;5.874;2022-07-23T05:04:49;63.91;40.21;74.48;;
73638;Laerm;53743;51.100;5.874;2022-07-23T05:05:50;54.30;29.48;71.58;;
73638;Laerm;53743;51.100;5.874;2022-07-23T05:06:52;56.18;32.98;69.27;;
73638;Laerm;53743;51.100;5.874;2022-07-23T05:07:53;63.40;36.31;76.10;;
73638;Laerm;53743;51.100;5.874;2022-07-23T05:08:54;58.48;30.17;76.84;;
73638;Laerm;53743;51.100;5.874;2022-07-23T05:09:55;52.43;31.00;66.93;;
73638;Laerm;53743;51.100;5.874;2022-07-23T05:10:56;59.82;35.93;72.87;;
73638;Laerm;53743;51.100;5.874;2022-07-23T05:11:57;59.05;32.95;71.09;;
73638;Laerm;53743;51.100;5.874;2022-07-23T05:12:58;49.42;30.36;67.10;;
73638;Laerm;53743;51.100;5.874;2022-07-23T05:13:58;58.13;30.08;74.46;;
73638;Laerm;53743;51.100;5.874;2022-07-23T05:14:59;60.91;30.50;77.61;;
73638;Laerm;53743;51.100;5.874;2022-07-23T05:16:00;57.19;30.22;71.96;;
73638;Laerm;53743;51.100;5.874;2022-07-23T05:17:01;58.66;30.91;72.02;;
73638;Laerm;53743;51.100;5.874;2022-07-23T05:18:02;59.02;30.05;73.22;;
73638;Laerm;53743;51.100;5.874;2022-07-23T05:19:03;57.09;31.21;73.39;;
73638;Laerm;53743;51.100;5.874;2022-07-23T05:20:06;59.17;33.70;72.33;;
73638;Laerm;53743;51.100;5.874;2022-07-23T05:21:07;55.69;36.82;73.79;;
73638;Laerm;53743;51.100;5.874;2022-07-23T05:22:08;60.43;33.32;73.87;;
73638;Laerm;53743;51.100;5.874;2022-07-23T05:23:09;59.39;29.93;75.80;;
73638;Laerm;53743;51.100;5.874;2022-07-23T05:24:10;61.02;30.22;76.73;;
73638;Laerm;53743;51.100;5.874;2022-07-23T05:25:11;61.31;32.75;74.95;;
73638;Laerm;53743;51.100;5.874;2022-07-23T05:26:12;67.15;36.98;80.33;;
73638;Laerm;53743;51.100;5.874;2022-07-23T05:27:12;58.95;29.48;73.48;;
73638;Laerm;53743;51.100;5.874;2022-07-23T05:28:13;55.33;29.15;72.25;;
73638;Laerm;53743;51.100;5.874;2022-07-23T05:29:14;58.85;33.68;73.20;;
73638;Laerm;53743;51.100;5.874;2022-07-23T05:30:15;63.38;33.39;76.16;;
73638;Laerm;53743;51.100;5.874;2022-07-23T05:31:18;57.81;30.83;77.65;;
73638;Laerm;53743;51.100;5.874;2022-07-23T05:32:19;63.16;30.78;77.63;;
73638;Laerm;53743;51.100;5.874;2022-07-23T05:33:27;62.63;30.72;75.27;;
73638;Laerm;53743;51.100;5.874;2022-07-23T05:34:28;58.39;30.25;74.52;;
73638;Laerm;53743;51.100;5.874;2022-07-23T05:35:29;52.45;29.52;66.25;;
73638;Laerm;53743;51.100;5.874;2022-07-23T05:36:52;59.81;31.29;72.41;;
73638;Laerm;53743;51.100;5.874;2022-07-23T05:37:54;67.07;32.65;82.20;;
73638;Laerm;53743;51.100;5.874;2022-07-23T05:38:55;59.36;31.82;74.91;;
73638;Laerm;53743;51.100;5.874;2022-07-23T05:40:03;52.80;30.64;67.30;;
73638;Laerm;53743;51.100;5.874;2022-07-23T05:41:06;58.72;30.45;75.35;;
73638;Laerm;53743;51.100;5.874;2022-07-23T05:42:07;62.79;31.18;74.00;;
73638;Laerm;53743;51.100;5.874;2022-07-23T05:43:08;59.15;33.19;70.78;;
73638;Laerm;53743;51.100;5.874;2022-07-23T05:44:09;61.52;30.60;77.63;;
73638;Laerm;53743;51.100;5.874;2022-07-23T05:45:13;38.56;29.28;62.79;;
73638;Laerm;53743;51.100;5.874;2022-07-23T05:46:16;56.79;29.59;73.38;;